createdAt,value
2023-04-05T00:00:32.726Z,1.49
2023-04-05T00:03:00.394Z,1.30
2023-04-05T00:05:32.016Z,1.10
2023-04-05T00:08:00.883Z,1.56
2023-04-05T00:10:28.714Z,1.30
2023-04-05T00:12:56.076Z,1.66
2023-04-05T00:15:23.347Z,1.59
2023-04-05T00:17:50.860Z,0.94
2023-04-05T00:20:17.950Z,1.41
2023-04-05T00:22:45.037Z,1.00
2023-04-05T00:25:12.767Z,1.09
2023-04-05T00:27:43.470Z,1.35
2023-04-05T00:30:21.328Z,1.22
2023-04-05T00:32:50.242Z,1.31
2023-04-05T00:35:17.915Z,1.11
2023-04-05T00:37:46.499Z,1.34
2023-04-05T00:40:14.342Z,1.71
2023-04-05T00:42:41.359Z,1.01
2023-04-05T00:45:09.166Z,1.14
2023-04-05T00:47:37.167Z,1.41
2023-04-05T00:50:04.269Z,1.49
2023-04-05T00:52:31.438Z,0.53
2023-04-05T00:54:58.898Z,0.87
2023-04-05T00:57:26.707Z,1.09
2023-04-05T00:59:53.866Z,1.10
2023-04-05T01:02:32.074Z,1.50
2023-04-05T01:05:03.268Z,1.61
2023-04-05T01:07:42.525Z,1.36
2023-04-05T01:10:13.665Z,0.74
2023-04-05T01:12:41.533Z,1.66
2023-04-05T01:15:09.523Z,2.06
2023-04-05T01:17:39.507Z,2.25
2023-04-05T01:20:18.449Z,2.06
2023-04-05T01:23:25.275Z,2.45
2023-04-05T01:26:10.318Z,2.74
2023-04-05T01:29:09.997Z,2.58
2023-04-05T01:31:47.306Z,1.86
2023-04-05T01:34:26.193Z,2.43
2023-04-05T01:37:04.177Z,2.70
2023-04-05T01:39:32.296Z,2.99
2023-04-05T01:42:01.731Z,2.93
2023-04-05T01:44:29.765Z,2.66
2023-04-05T01:46:57.480Z,0.71
2023-04-05T01:49:25.708Z,1.80
2023-04-05T01:51:53.066Z,2.05
2023-04-05T01:54:20.120Z,2.02
2023-04-05T01:56:47.564Z,2.55
2023-04-05T01:59:20.720Z,2.52
2023-04-05T02:01:47.996Z,2.15
2023-04-05T02:04:15.236Z,2.21
2023-04-05T02:06:42.865Z,1.72
2023-04-05T02:09:09.773Z,2.15
2023-04-05T02:11:36.833Z,2.54
2023-04-05T02:14:04.837Z,2.62
2023-04-05T02:16:34.444Z,2.58
2023-04-05T02:19:01.746Z,2.62
2023-04-05T02:21:29.306Z,1.99
2023-04-05T02:23:56.608Z,1.84
2023-04-05T02:26:24.768Z,2.27
2023-04-05T02:28:52.481Z,1.69
2023-04-05T02:31:20.108Z,1.14
2023-04-05T02:33:49.249Z,0.45
2023-04-05T02:36:16.417Z,1.50
2023-04-05T02:38:43.938Z,0.91
2023-04-05T02:41:30.887Z,0.70
2023-04-05T02:43:57.929Z,0.83
2023-04-05T02:46:24.932Z,1.11
2023-04-05T02:48:52.429Z,0.48
2023-04-05T02:51:19.444Z,0.35
2023-04-05T02:53:46.674Z,0.41
2023-04-05T02:56:14.519Z,-0.31
2023-04-05T02:58:41.970Z,-0.34
2023-04-05T03:01:09.106Z,-0.69
2023-04-05T03:03:36.301Z,-0.43
2023-04-05T03:06:12.046Z,-0.14
2023-04-05T03:08:44.426Z,-0.03
2023-04-05T03:11:12.040Z,-0.07
2023-04-05T03:13:39.139Z,-0.38
2023-04-05T03:16:06.485Z,-0.13
2023-04-05T03:18:33.568Z,0.13
2023-04-05T03:21:00.583Z,0.01
2023-04-05T03:23:30.690Z,-0.40
2023-04-05T03:25:58.467Z,-0.52
2023-04-05T03:28:26.326Z,-0.95
2023-04-05T03:30:53.534Z,-0.53
2023-04-05T03:33:21.377Z,-0.09
2023-04-05T03:35:49.619Z,-0.03
2023-04-05T03:38:17.874Z,-0.02
2023-04-05T03:40:45.634Z,0.15
2023-04-05T03:43:14.067Z,0.15
2023-04-05T03:45:41.768Z,-0.20
2023-04-05T03:48:10.423Z,-0.45
2023-04-05T03:50:37.832Z,0.18
2023-04-05T03:53:05.003Z,-0.16
2023-04-05T03:55:32.455Z,-0.33
2023-04-05T03:57:59.445Z,0.08
2023-04-05T04:00:26.502Z,-0.74
2023-04-05T04:02:53.707Z,-0.77
2023-04-05T04:05:22.079Z,-0.15
2023-04-05T04:07:49.169Z,-0.76
2023-04-05T04:10:20.050Z,-0.73
2023-04-05T04:12:47.136Z,-0.59
2023-04-05T04:15:14.181Z,-0.65
2023-04-05T04:17:41.428Z,-0.37
2023-04-05T04:20:11.434Z,-0.47
2023-04-05T04:22:40.688Z,0.31
2023-04-05T04:25:10.921Z,0.01
2023-04-05T04:27:43.101Z,-0.17
2023-04-05T04:30:12.940Z,-0.01
2023-04-05T04:32:55.669Z,0.11
2023-04-05T04:35:29.387Z,-0.27
2023-04-05T04:38:04.922Z,-0.22
2023-04-05T04:40:39.817Z,-0.15
2023-04-05T04:43:14.600Z,-0.15
2023-04-05T04:45:42.322Z,0.02
2023-04-05T04:48:10.211Z,-0.39
2023-04-05T04:50:37.883Z,0.09
2023-04-05T04:53:04.918Z,0.42
2023-04-05T04:55:33.752Z,1.11
2023-04-05T04:58:00.832Z,0.99
2023-04-05T05:00:27.914Z,1.25
2023-04-05T05:02:56.416Z,1.79
2023-04-05T05:05:23.695Z,2.25
2023-04-05T05:07:50.936Z,2.70
2023-04-05T05:10:19.043Z,3.22
2023-04-05T05:12:46.242Z,3.59
2023-04-05T05:15:13.278Z,4.28
2023-04-05T05:17:40.656Z,4.85
2023-04-05T05:20:11.462Z,5.69
2023-04-05T05:22:39.636Z,6.12
2023-04-05T05:25:09.041Z,7.68
2023-04-05T05:27:36.602Z,7.83
2023-04-05T05:30:04.331Z,7.79
2023-04-05T05:32:31.582Z,8.54
2023-04-05T05:34:58.676Z,8.83
2023-04-05T05:37:33.700Z,8.88
2023-04-05T05:40:00.972Z,7.15
2023-04-05T05:42:28.587Z,7.62
2023-04-05T05:44:56.216Z,7.92
2023-04-05T05:47:23.376Z,6.56
2023-04-05T05:49:50.704Z,7.71
2023-04-05T05:52:17.678Z,7.53
2023-04-05T05:54:44.803Z,8.10
2023-04-05T05:57:11.922Z,8.24
2023-04-05T05:59:39.114Z,8.42
2023-04-05T06:02:06.106Z,7.76
2023-04-05T06:04:34.578Z,8.06
2023-04-05T06:07:01.989Z,8.49
2023-04-05T06:09:29.488Z,8.79
2023-04-05T06:11:57.397Z,9.03
2023-04-05T06:14:25.436Z,9.42
2023-04-05T06:16:52.870Z,10.00
2023-04-05T06:19:19.887Z,9.00
2023-04-05T06:21:47.166Z,6.87
2023-04-05T06:24:14.550Z,6.99
2023-04-05T06:26:41.654Z,5.56
2023-04-05T06:29:08.692Z,4.56
2023-04-05T06:31:36.979Z,4.83
2023-04-05T06:34:04.179Z,4.17
2023-04-05T06:36:32.450Z,3.46
2023-04-05T06:38:59.751Z,3.39
2023-04-05T06:41:28.032Z,4.71
2023-04-05T06:43:56.406Z,4.20
2023-04-05T06:46:24.565Z,4.51
2023-04-05T06:48:53.105Z,4.19
2023-04-05T06:51:20.538Z,4.85
2023-04-05T06:53:47.564Z,5.61
2023-04-05T06:56:16.651Z,5.50
2023-04-05T06:58:44.720Z,4.77
2023-04-05T07:01:12.428Z,4.02
2023-04-05T07:03:39.717Z,3.74
2023-04-05T07:06:08.006Z,4.52
2023-04-05T07:08:35.175Z,4.25
2023-04-05T07:11:02.355Z,4.90
2023-04-05T07:13:30.556Z,4.85
2023-04-05T07:16:02.705Z,4.30
2023-04-05T07:18:30.427Z,5.30
2023-04-05T07:21:06.015Z,5.57
2023-04-05T07:23:33.060Z,6.63
2023-04-05T07:26:05.431Z,5.72
2023-04-05T07:28:34.627Z,5.61
2023-04-05T07:31:06.140Z,6.12
2023-04-05T07:33:34.217Z,6.24
2023-04-05T07:36:01.378Z,6.50
2023-04-05T07:38:30.194Z,5.86
2023-04-05T07:40:57.271Z,5.73
2023-04-05T07:43:26.081Z,5.83
2023-04-05T07:45:54.181Z,5.62
2023-04-05T07:48:21.381Z,5.50
2023-04-05T07:50:49.029Z,4.72
2023-04-05T07:53:16.501Z,4.90
2023-04-05T07:55:43.752Z,5.01
2023-04-05T07:58:13.330Z,5.14
2023-04-05T08:00:40.605Z,4.82
2023-04-05T08:03:07.983Z,4.94
2023-04-05T08:05:35.168Z,6.04
2023-04-05T08:08:02.451Z,5.96
2023-04-05T08:10:30.451Z,6.35
2023-04-05T08:12:58.678Z,6.31
2023-04-05T08:15:26.256Z,7.11
2023-04-05T08:17:56.452Z,7.48
2023-04-05T08:20:28.709Z,7.62
2023-04-05T08:23:00.734Z,8.16
2023-04-05T08:25:30.662Z,8.29
2023-04-05T08:28:06.214Z,7.84
2023-04-05T08:30:35.132Z,7.85
2023-04-05T08:33:09.487Z,6.00
2023-04-05T08:35:40.030Z,6.69
2023-04-05T08:38:16.519Z,7.25
2023-04-05T08:40:49.379Z,8.07
2023-04-05T08:43:28.691Z,7.50
2023-04-05T08:46:04.464Z,6.72
2023-04-05T08:48:39.371Z,7.91
2023-04-05T08:51:12.903Z,7.67
2023-04-05T08:53:42.152Z,7.29
2023-04-05T08:56:15.508Z,8.61
2023-04-05T08:58:59.002Z,8.39
2023-04-05T09:01:31.057Z,8.03
2023-04-05T09:04:12.840Z,7.35
2023-04-05T09:06:41.779Z,7.60
2023-04-05T09:09:11.215Z,8.23
2023-04-05T09:11:46.828Z,8.40
2023-04-05T09:14:19.400Z,9.01
2023-04-05T09:16:48.101Z,9.21
2023-04-05T09:19:16.792Z,9.73
2023-04-05T09:22:07.581Z,7.81
2023-04-05T09:24:37.728Z,7.89
2023-04-05T09:27:10.066Z,8.63
2023-04-05T09:29:40.229Z,7.68
2023-04-05T09:32:12.277Z,7.81
2023-04-05T09:34:41.347Z,7.63
2023-04-05T09:37:16.737Z,8.25
2023-04-05T09:39:44.655Z,8.72
2023-04-05T09:42:16.763Z,9.29
2023-04-05T09:45:05.468Z,9.21
2023-04-05T09:47:36.851Z,9.39
2023-04-05T09:50:24.364Z,8.06
2023-04-05T09:52:52.875Z,8.67
2023-04-05T09:55:31.584Z,9.16
2023-04-05T09:58:00.945Z,7.72
2023-04-05T10:00:31.443Z,8.61
2023-04-05T10:03:00.872Z,8.87
2023-04-05T10:05:29.573Z,9.06
2023-04-05T10:07:57.390Z,9.82
2023-04-05T10:10:26.105Z,9.72
2023-04-05T10:12:54.329Z,8.71
2023-04-05T10:15:23.756Z,9.72
2023-04-05T10:18:03.899Z,10.00
2023-04-05T10:20:40.177Z,9.93
2023-04-05T10:23:33.312Z,10.21
2023-04-05T10:27:05.912Z,8.87
2023-04-05T10:29:50.988Z,10.08
2023-04-05T10:32:40.960Z,10.17
2023-04-05T10:35:11.172Z,9.09
2023-04-05T10:37:57.058Z,9.59
2023-04-05T10:40:30.786Z,10.32
2023-04-05T10:42:58.027Z,10.30
2023-04-05T10:45:27.566Z,9.65
2023-04-05T10:48:14.880Z,8.91
2023-04-05T10:50:43.099Z,8.83
2023-04-05T10:53:11.733Z,9.44
2023-04-05T10:55:39.636Z,9.78
2023-04-05T10:58:07.214Z,8.91
2023-04-05T11:00:34.782Z,8.73
2023-04-05T11:03:01.979Z,8.52
2023-04-05T11:05:37.972Z,9.49
2023-04-05T11:08:09.540Z,9.56
2023-04-05T11:10:38.802Z,10.45
2023-04-05T11:13:08.188Z,9.75
2023-04-05T11:15:35.978Z,10.08
2023-04-05T11:18:08.867Z,10.65
2023-04-05T11:20:43.684Z,10.34
2023-04-05T11:23:14.880Z,10.56
2023-04-05T11:25:49.766Z,9.79
2023-04-05T11:28:32.223Z,10.18
2023-04-05T11:31:17.036Z,10.76
2023-04-05T11:34:14.826Z,9.23
2023-04-05T11:36:48.671Z,9.96
2023-04-05T11:39:18.866Z,9.54
2023-04-05T11:41:53.951Z,9.71
2023-04-05T11:44:23.255Z,10.07
2023-04-05T11:46:51.584Z,10.18
2023-04-05T11:49:22.814Z,9.57
2023-04-05T11:51:52.475Z,9.21
2023-04-05T11:54:40.179Z,9.67
2023-04-05T11:57:25.064Z,10.60
2023-04-05T11:59:53.788Z,10.33
2023-04-05T12:02:22.548Z,10.03
2023-04-05T12:05:02.321Z,9.95
2023-04-05T12:07:32.855Z,10.43
2023-04-05T12:10:18.237Z,10.17
2023-04-05T12:12:47.932Z,10.02
2023-04-05T12:15:18.107Z,10.30
2023-04-05T12:17:51.668Z,10.43
2023-04-05T12:20:25.046Z,10.15
2023-04-05T12:22:57.781Z,10.60
2023-04-05T12:25:25.373Z,10.19
2023-04-05T12:27:52.579Z,10.40
2023-04-05T12:30:24.223Z,10.01
2023-04-05T12:32:53.284Z,9.33
2023-04-05T12:35:24.718Z,9.97
2023-04-05T12:37:52.542Z,9.64
2023-04-05T12:40:23.618Z,9.61
2023-04-05T12:42:51.523Z,10.19
2023-04-05T12:45:19.929Z,9.82
2023-04-05T12:48:00.629Z,10.36
2023-04-05T12:50:32.027Z,9.88
2023-04-05T12:53:01.167Z,10.62
2023-04-05T12:55:30.146Z,10.13
2023-04-05T12:58:02.461Z,10.93
2023-04-05T13:00:30.426Z,10.27
2023-04-05T13:02:59.162Z,10.43
2023-04-05T13:05:29.271Z,10.23
2023-04-05T13:07:56.746Z,10.86
2023-04-05T13:10:26.853Z,11.53
2023-04-05T13:12:53.924Z,11.32
2023-04-05T13:15:21.509Z,11.11
2023-04-05T13:17:50.406Z,11.58
2023-04-05T13:20:18.374Z,11.63
2023-04-05T13:22:46.530Z,10.91
2023-04-05T13:25:15.164Z,11.39
2023-04-05T13:27:42.543Z,11.01
2023-04-05T13:30:12.753Z,10.99
2023-04-05T13:32:40.385Z,11.80
2023-04-05T13:35:10.355Z,11.47
2023-04-05T13:37:38.836Z,11.83
2023-04-05T13:40:08.711Z,10.61
2023-04-05T13:42:35.876Z,10.23
2023-04-05T13:45:05.872Z,10.96
2023-04-05T13:47:35.205Z,10.11
2023-04-05T13:50:03.231Z,9.35
2023-04-05T13:52:32.514Z,9.27
2023-04-05T13:55:02.874Z,9.73
2023-04-05T13:57:31.714Z,10.56
2023-04-05T14:00:01.162Z,9.94
2023-04-05T14:02:29.045Z,9.84
2023-04-05T14:04:58.786Z,9.84
2023-04-05T14:07:26.207Z,9.69
2023-04-05T14:09:53.457Z,10.05
2023-04-05T14:12:27.087Z,10.22
2023-04-05T14:14:54.334Z,11.23
2023-04-05T14:17:21.640Z,11.43
2023-04-05T14:19:49.090Z,10.43
2023-04-05T14:22:16.712Z,10.83
2023-04-05T14:24:44.136Z,9.86
2023-04-05T14:27:12.885Z,9.90
2023-04-05T14:29:39.997Z,9.24
2023-04-05T14:32:07.218Z,9.86
2023-04-05T14:34:34.266Z,10.27
2023-04-05T14:37:05.481Z,10.18
2023-04-05T14:39:32.619Z,10.74
2023-04-05T14:42:00.275Z,10.91
2023-04-05T14:44:28.194Z,11.45
2023-04-05T14:46:55.263Z,10.19
2023-04-05T14:49:24.745Z,10.24
2023-04-05T14:51:51.812Z,10.19
2023-04-05T14:54:18.883Z,9.51
2023-04-05T14:56:47.898Z,9.44
2023-04-05T14:59:14.961Z,10.02
2023-04-05T15:01:44.624Z,9.85
2023-04-05T15:04:12.254Z,9.90
2023-04-05T15:06:39.304Z,9.70
2023-04-05T15:09:06.441Z,9.73
2023-04-05T15:11:35.814Z,9.40
2023-04-05T15:14:03.049Z,10.01
2023-04-05T15:16:30.761Z,9.98
2023-04-05T15:18:59.440Z,9.92
2023-04-05T15:21:26.527Z,9.96
2023-04-05T15:23:53.577Z,9.94
2023-04-05T15:26:21.332Z,9.69
2023-04-05T15:28:48.407Z,10.01
2023-04-05T15:31:15.579Z,10.15
2023-04-05T15:33:42.742Z,9.57
2023-04-05T15:36:10.048Z,8.92
2023-04-05T15:38:37.108Z,9.02
2023-04-05T15:41:04.309Z,9.27
2023-04-05T15:43:32.793Z,9.05
2023-04-05T15:45:59.995Z,9.59
2023-04-05T15:48:29.126Z,9.87
2023-04-05T15:50:56.306Z,9.85
2023-04-05T15:53:23.492Z,9.92
2023-04-05T15:55:50.601Z,9.24
2023-04-05T15:58:17.781Z,9.04
2023-04-05T16:00:45.002Z,9.77
2023-04-05T16:03:12.235Z,9.76
2023-04-05T16:05:39.449Z,9.86
2023-04-05T16:08:06.889Z,9.43
2023-04-05T16:10:34.077Z,9.79
2023-04-05T16:13:01.316Z,9.92
2023-04-05T16:15:28.802Z,9.23
2023-04-05T16:17:56.429Z,8.99
2023-04-05T16:20:23.957Z,9.36
2023-04-05T16:22:52.146Z,10.04
2023-04-05T16:25:19.667Z,9.69
2023-04-05T16:27:46.703Z,9.57
2023-04-05T16:30:14.295Z,9.13
2023-04-05T16:32:41.389Z,8.97
2023-04-05T16:35:08.914Z,9.31
2023-04-05T16:37:36.542Z,9.70
2023-04-05T16:40:04.707Z,9.29
2023-04-05T16:42:31.839Z,9.57
2023-04-05T16:44:58.956Z,9.63
2023-04-05T16:47:26.526Z,9.69
2023-04-05T16:49:53.743Z,8.98
2023-04-05T16:52:21.051Z,9.05
2023-04-05T16:54:48.227Z,9.16
2023-04-05T16:57:16.712Z,9.15
2023-04-05T16:59:43.833Z,9.30
2023-04-05T17:02:10.947Z,8.96
2023-04-05T17:04:38.457Z,8.52
2023-04-05T17:07:06.036Z,9.10
2023-04-05T17:09:33.519Z,9.15
2023-04-05T17:12:00.523Z,9.00
2023-04-05T17:14:27.666Z,8.54
2023-04-05T17:16:55.658Z,9.04
2023-04-05T17:19:23.081Z,9.17
2023-04-05T17:21:50.253Z,8.92
2023-04-05T17:24:19.930Z,8.90
2023-04-05T17:26:47.118Z,8.99
2023-04-05T17:29:14.267Z,8.56
2023-04-05T17:31:42.265Z,8.63
2023-04-05T17:34:13.414Z,9.19
2023-04-05T17:36:40.860Z,8.89
2023-04-05T17:39:07.906Z,8.98
2023-04-05T17:41:34.966Z,9.15
2023-04-05T17:44:01.995Z,9.11
2023-04-05T17:46:39.741Z,8.99
2023-04-05T17:49:08.668Z,8.93
2023-04-05T17:51:35.859Z,8.91
2023-04-05T17:54:03.026Z,8.93
2023-04-05T17:56:30.294Z,8.96
2023-04-05T17:58:57.251Z,9.16
2023-04-05T18:01:24.240Z,9.13
2023-04-05T18:03:51.600Z,8.84
2023-04-05T18:06:20.590Z,8.41
2023-04-05T18:08:47.631Z,8.44
2023-04-05T18:11:14.697Z,8.78
2023-04-05T18:13:41.763Z,8.49
2023-04-05T18:16:08.864Z,8.52
2023-04-05T18:18:36.513Z,8.10
2023-04-05T18:21:04.813Z,8.48
2023-04-05T18:23:33.897Z,8.12
2023-04-05T18:26:07.331Z,8.00
2023-04-05T18:28:34.312Z,7.81
2023-04-05T18:31:01.394Z,7.77
2023-04-05T18:33:28.332Z,7.74
2023-04-05T18:35:55.393Z,7.37
2023-04-05T18:38:22.375Z,7.48
2023-04-05T18:40:49.416Z,7.62
2023-04-05T18:43:16.671Z,7.70
2023-04-05T18:45:43.739Z,7.61
2023-04-05T18:48:11.693Z,7.70
2023-04-05T18:50:38.804Z,7.25
2023-04-05T18:53:07.128Z,7.57
2023-04-05T18:55:34.182Z,7.05
2023-04-05T18:58:01.510Z,7.47
2023-04-05T19:00:28.491Z,7.04
2023-04-05T19:02:55.979Z,6.90
2023-04-05T19:05:23.055Z,6.93
2023-04-05T19:07:50.047Z,7.05
2023-04-05T19:10:19.596Z,7.05
2023-04-05T19:12:47.067Z,7.26
2023-04-05T19:15:14.116Z,6.79
2023-04-05T19:17:41.220Z,6.99
2023-04-05T19:20:08.747Z,6.63
2023-04-05T19:22:35.984Z,7.12
2023-04-05T19:25:04.347Z,6.85
2023-04-05T19:27:33.117Z,6.92
2023-04-05T19:30:00.349Z,6.25
2023-04-05T19:32:27.454Z,6.29
2023-04-05T19:34:54.658Z,6.59
2023-04-05T19:37:21.705Z,5.92
2023-04-05T19:39:48.981Z,6.46
2023-04-05T19:42:16.142Z,6.22
2023-04-05T19:44:43.091Z,6.18
2023-04-05T19:47:11.367Z,6.37
2023-04-05T19:49:42.691Z,6.16
2023-04-05T19:52:13.234Z,6.10
2023-04-05T19:54:42.973Z,6.05
2023-04-05T19:57:10.266Z,5.78
2023-04-05T19:59:38.230Z,5.95
2023-04-05T20:02:19.690Z,5.61
2023-04-05T20:04:48.213Z,5.70
2023-04-05T20:07:15.711Z,6.01
2023-04-05T20:09:44.469Z,6.10
2023-04-05T20:12:13.811Z,6.12
2023-04-05T20:14:44.211Z,6.11
2023-04-05T20:17:13.367Z,5.90
2023-04-05T20:19:42.674Z,5.89
2023-04-05T20:22:09.882Z,5.62
2023-04-05T20:24:39.365Z,5.31
2023-04-05T20:27:06.685Z,5.77
2023-04-05T20:29:33.908Z,5.66
2023-04-05T20:32:02.100Z,5.08
2023-04-05T20:34:31.821Z,5.57
2023-04-05T20:37:03.141Z,5.40
2023-04-05T20:39:31.620Z,4.97
2023-04-05T20:41:58.733Z,5.20
2023-04-05T20:44:26.216Z,4.99
2023-04-05T20:46:55.016Z,5.26
2023-04-05T20:49:22.690Z,5.28
2023-04-05T20:51:55.087Z,4.87
2023-04-05T20:54:22.744Z,5.27
2023-04-05T20:56:51.850Z,5.15
2023-04-05T20:59:18.876Z,5.04
2023-04-05T21:01:47.777Z,5.27
2023-04-05T21:04:14.971Z,5.14
2023-04-05T21:06:42.537Z,5.33
2023-04-05T21:09:10.101Z,4.83
2023-04-05T21:11:37.624Z,4.87
2023-04-05T21:14:04.762Z,4.99
2023-04-05T21:16:32.018Z,5.28
2023-04-05T21:18:59.017Z,5.03
2023-04-05T21:21:26.508Z,4.88
2023-04-05T21:23:53.541Z,4.71
2023-04-05T21:26:21.739Z,4.63
2023-04-05T21:28:48.796Z,4.41
2023-04-05T21:31:15.873Z,4.61
2023-04-05T21:33:44.154Z,4.75
2023-04-05T21:36:11.227Z,4.90
2023-04-05T21:38:38.256Z,4.76
2023-04-05T21:41:05.364Z,4.59
2023-04-05T21:43:32.357Z,4.33
2023-04-05T21:45:59.273Z,4.16
2023-04-05T21:48:28.290Z,3.96
2023-04-05T21:50:56.120Z,4.08
2023-04-05T21:53:25.681Z,3.99
2023-04-05T21:55:53.129Z,4.01
2023-04-05T21:58:20.166Z,4.33
2023-04-05T22:00:47.647Z,4.39
2023-04-05T22:03:14.841Z,3.85
2023-04-05T22:05:42.912Z,3.62
2023-04-05T22:08:11.155Z,4.10
2023-04-05T22:10:38.629Z,3.77
2023-04-05T22:13:05.618Z,4.05
2023-04-05T22:15:32.557Z,4.07
2023-04-05T22:17:59.580Z,4.09
2023-04-05T22:20:26.830Z,4.09
2023-04-05T22:22:53.997Z,3.72
2023-04-05T22:25:21.147Z,3.98
2023-04-05T22:27:48.108Z,4.11
2023-04-05T22:30:16.151Z,4.00
2023-04-05T22:32:43.308Z,3.67
2023-04-05T22:35:10.910Z,3.85
2023-04-05T22:37:38.585Z,3.56
2023-04-05T22:40:06.404Z,3.57
2023-04-05T22:42:33.375Z,3.14
2023-04-05T22:45:00.499Z,2.99
2023-04-05T22:47:27.567Z,3.35
2023-04-05T22:49:54.623Z,3.38
2023-04-05T22:52:21.909Z,3.63
2023-04-05T22:54:48.969Z,3.39
2023-04-05T22:57:16.210Z,3.75
2023-04-05T22:59:43.541Z,3.68
2023-04-05T23:02:12.664Z,3.80
2023-04-05T23:04:39.874Z,3.93
2023-04-05T23:07:07.031Z,4.29
2023-04-05T23:09:34.180Z,4.02
2023-04-05T23:12:01.351Z,4.26
2023-04-05T23:14:28.321Z,4.12
2023-04-05T23:16:55.322Z,4.18
2023-04-05T23:19:22.372Z,4.31
2023-04-05T23:21:49.333Z,4.36
2023-04-05T23:24:16.385Z,4.19
2023-04-05T23:26:43.347Z,4.19
2023-04-05T23:29:10.587Z,3.91
2023-04-05T23:31:37.720Z,4.16
2023-04-05T23:34:04.757Z,3.94
2023-04-05T23:36:32.720Z,3.87
2023-04-05T23:39:00.502Z,4.05
2023-04-05T23:41:27.791Z,3.82
2023-04-05T23:43:54.716Z,3.93
2023-04-05T23:46:22.389Z,4.07
2023-04-05T23:48:49.548Z,3.86
2023-04-05T23:51:16.575Z,4.00
2023-04-05T23:53:43.540Z,4.10
2023-04-05T23:56:10.552Z,3.91
2023-04-05T23:58:37.485Z,4.09
